sensor_id;sensor_type;location;lat;lon;timestamp;temperature;humidity
13496;DHT22;6820;49.374;8.452;2023-12-07T00:02:54;4.36;99.99
13496;DHT22;6820;49.374;8.452;2023-12-07T00:06:56;4.32;99.99
13496;DHT22;6820;49.374;8.452;2023-12-07T00:10:57;4.28;99.99
13496;DHT22;6820;49.374;8.452;2023-12-07T00:14:59;4.25;99.99
13496;DHT22;6820;49.374;8.452;2023-12-07T00:19:01;4.21;99.99
13496;DHT22;6820;49.374;8.452;2023-12-07T00:23:02;4.21;99.99
13496;DHT22;6820;49.374;8.452;2023-12-07T00:33:01;4.20;99.99
13496;DHT22;6820;49.374;8.452;2023-12-07T00:37:03;4.20;99.99
13496;DHT22;6820;49.374;8.452;2023-12-07T00:41:05;4.17;99.99
13496;DHT22;6820;49.374;8.452;2023-12-07T00:45:07;4.16;99.99
13496;DHT22;6820;49.374;8.452;2023-12-07T00:49:09;4.14;99.99
13496;DHT22;6820;49.374;8.452;2023-12-07T00:53:11;4.08;99.99
13496;DHT22;6820;49.374;8.452;2023-12-07T00:57:13;4.04;99.99
13496;DHT22;6820;49.374;8.452;2023-12-07T01:01:15;3.95;99.99
13496;DHT22;6820;49.374;8.452;2023-12-07T01:05:17;3.90;99.99
13496;DHT22;6820;49.374;8.452;2023-12-07T01:09:19;3.88;99.99
13496;DHT22;6820;49.374;8.452;2023-12-07T01:13:20;3.80;99.99
13496;DHT22;6820;49.374;8.452;2023-12-07T01:17:22;3.74;99.99
13496;DHT22;6820;49.374;8.452;2023-12-07T01:21:23;3.74;99.99
13496;DHT22;6820;49.374;8.452;2023-12-07T01:25:25;3.70;99.99
13496;DHT22;6820;49.374;8.452;2023-12-07T01:29:27;3.70;99.99
13496;DHT22;6820;49.374;8.452;2023-12-07T01:33:29;3.72;99.99
13496;DHT22;6820;49.374;8.452;2023-12-07T01:37:30;3.74;99.99
13496;DHT22;6820;49.374;8.452;2023-12-07T01:41:32;3.75;99.99
13496;DHT22;6820;49.374;8.452;2023-12-07T01:45:34;3.75;99.99
13496;DHT22;6820;49.374;8.452;2023-12-07T01:49:36;3.74;99.99
13496;DHT22;6820;49.374;8.452;2023-12-07T01:53:38;3.74;99.99
13496;DHT22;6820;49.374;8.452;2023-12-07T01:57:41;3.71;99.99
13496;DHT22;6820;49.374;8.452;2023-12-07T02:01:45;3.68;99.99
13496;DHT22;6820;49.374;8.452;2023-12-07T02:05:47;3.67;99.99
13496;DHT22;6820;49.374;8.452;2023-12-07T02:09:50;3.64;99.99
13496;DHT22;6820;49.374;8.452;2023-12-07T02:13:52;3.63;99.99
13496;DHT22;6820;49.374;8.452;2023-12-07T02:18:04;3.60;99.99
13496;DHT22;6820;49.374;8.452;2023-12-07T02:22:22;3.56;99.99
13496;DHT22;6820;49.374;8.452;2023-12-07T02:26:34;3.52;99.99
13496;DHT22;6820;49.374;8.452;2023-12-07T02:30:36;3.46;99.99
13496;DHT22;6820;49.374;8.452;2023-12-07T02:34:38;3.41;99.99
13496;DHT22;6820;49.374;8.452;2023-12-07T02:38:39;3.34;99.99
13496;DHT22;6820;49.374;8.452;2023-12-07T02:42:42;3.30;99.99
13496;DHT22;6820;49.374;8.452;2023-12-07T02:46:44;3.26;99.99
13496;DHT22;6820;49.374;8.452;2023-12-07T02:50:46;3.22;99.99
13496;DHT22;6820;49.374;8.452;2023-12-07T02:54:48;3.16;99.99
13496;DHT22;6820;49.374;8.452;2023-12-07T02:58:50;3.08;99.99
13496;DHT22;6820;49.374;8.452;2023-12-07T03:02:51;3.04;99.99
13496;DHT22;6820;49.374;8.452;2023-12-07T03:06:53;2.98;99.99
13496;DHT22;6820;49.374;8.452;2023-12-07T03:10:55;2.95;99.99
13496;DHT22;6820;49.374;8.452;2023-12-07T03:14:57;2.94;99.99
13496;DHT22;6820;49.374;8.452;2023-12-07T03:19:00;2.94;99.99
13496;DHT22;6820;49.374;8.452;2023-12-07T03:23:03;2.94;99.99
13496;DHT22;6820;49.374;8.452;2023-12-07T03:27:05;2.90;99.99
13496;DHT22;6820;49.374;8.452;2023-12-07T03:31:07;2.92;99.99
13496;DHT22;6820;49.374;8.452;2023-12-07T03:35:09;2.94;99.99
13496;DHT22;6820;49.374;8.452;2023-12-07T03:39:10;2.92;99.99
13496;DHT22;6820;49.374;8.452;2023-12-07T03:43:12;2.90;99.99
13496;DHT22;6820;49.374;8.452;2023-12-07T03:47:15;2.92;99.99
13496;DHT22;6820;49.374;8.452;2023-12-07T03:51:16;2.89;99.99
13496;DHT22;6820;49.374;8.452;2023-12-07T03:55:18;2.86;99.99
13496;DHT22;6820;49.374;8.452;2023-12-07T03:59:20;2.84;99.99
13496;DHT22;6820;49.374;8.452;2023-12-07T04:03:21;2.86;99.99
13496;DHT22;6820;49.374;8.452;2023-12-07T04:07:23;2.81;99.99
13496;DHT22;6820;49.374;8.452;2023-12-07T04:11:25;2.80;99.99
13496;DHT22;6820;49.374;8.452;2023-12-07T04:15:26;2.77;99.99
13496;DHT22;6820;49.374;8.452;2023-12-07T04:19:28;2.76;99.99
13496;DHT22;6820;49.374;8.452;2023-12-07T04:23:30;2.74;99.99
13496;DHT22;6820;49.374;8.452;2023-12-07T04:27:32;2.71;99.99
13496;DHT22;6820;49.374;8.452;2023-12-07T04:31:34;2.66;99.99
13496;DHT22;6820;49.374;8.452;2023-12-07T04:35:37;2.63;99.99
13496;DHT22;6820;49.374;8.452;2023-12-07T04:39:39;2.56;99.99
13496;DHT22;6820;49.374;8.452;2023-12-07T04:43:40;2.55;99.99
13496;DHT22;6820;49.374;8.452;2023-12-07T04:47:42;2.50;99.99
13496;DHT22;6820;49.374;8.452;2023-12-07T04:51:43;2.47;99.99
13496;DHT22;6820;49.374;8.452;2023-12-07T04:55:48;2.40;99.99
13496;DHT22;6820;49.374;8.452;2023-12-07T04:59:51;2.29;99.99
13496;DHT22;6820;49.374;8.452;2023-12-07T05:03:53;2.30;99.99
13496;DHT22;6820;49.374;8.452;2023-12-07T05:07:54;2.27;99.99
13496;DHT22;6820;49.374;8.452;2023-12-07T05:11:56;2.22;99.99
13496;DHT22;6820;49.374;8.452;2023-12-07T05:15:58;2.19;99.99
13496;DHT22;6820;49.374;8.452;2023-12-07T05:19:59;2.15;99.99
13496;DHT22;6820;49.374;8.452;2023-12-07T05:24:01;2.12;99.99
13496;DHT22;6820;49.374;8.452;2023-12-07T05:28:03;2.11;99.99
13496;DHT22;6820;49.374;8.452;2023-12-07T05:32:05;2.07;99.99
13496;DHT22;6820;49.374;8.452;2023-12-07T05:36:07;2.04;99.99
13496;DHT22;6820;49.374;8.452;2023-12-07T05:40:09;2.01;99.99
13496;DHT22;6820;49.374;8.452;2023-12-07T05:44:13;2.01;99.99
13496;DHT22;6820;49.374;8.452;2023-12-07T05:48:15;2.00;99.99
13496;DHT22;6820;49.374;8.452;2023-12-07T05:52:17;1.98;99.99
13496;DHT22;6820;49.374;8.452;2023-12-07T05:56:19;1.98;99.99
13496;DHT22;6820;49.374;8.452;2023-12-07T06:00:24;1.98;99.99
13496;DHT22;6820;49.374;8.452;2023-12-07T06:04:27;1.95;99.99
13496;DHT22;6820;49.374;8.452;2023-12-07T06:08:29;2.00;99.99
13496;DHT22;6820;49.374;8.452;2023-12-07T06:12:31;2.00;99.99
13496;DHT22;6820;49.374;8.452;2023-12-07T06:16:33;2.00;99.99
13496;DHT22;6820;49.374;8.452;2023-12-07T06:20:35;2.00;99.99
13496;DHT22;6820;49.374;8.452;2023-12-07T06:24:37;2.00;99.99
13496;DHT22;6820;49.374;8.452;2023-12-07T06:28:38;2.00;99.99
13496;DHT22;6820;49.374;8.452;2023-12-07T06:32:40;2.01;99.99
13496;DHT22;6820;49.374;8.452;2023-12-07T06:36:42;2.02;99.99
13496;DHT22;6820;49.374;8.452;2023-12-07T06:40:45;2.04;99.99
13496;DHT22;6820;49.374;8.452;2023-12-07T06:44:47;2.02;99.99
13496;DHT22;6820;49.374;8.452;2023-12-07T06:48:52;2.02;99.99
13496;DHT22;6820;49.374;8.452;2023-12-07T06:52:53;2.02;99.99
13496;DHT22;6820;49.374;8.452;2023-12-07T06:56:55;2.02;99.99
13496;DHT22;6820;49.374;8.452;2023-12-07T07:00:57;2.00;99.99
13496;DHT22;6820;49.374;8.452;2023-12-07T07:04:59;1.98;99.99
13496;DHT22;6820;49.374;8.452;2023-12-07T07:09:01;2.01;99.99
13496;DHT22;6820;49.374;8.452;2023-12-07T07:13:03;2.00;99.99
13496;DHT22;6820;49.374;8.452;2023-12-07T07:17:07;2.00;99.99
13496;DHT22;6820;49.374;8.452;2023-12-07T07:21:09;2.00;99.99
13496;DHT22;6820;49.374;8.452;2023-12-07T07:25:10;2.00;99.99
13496;DHT22;6820;49.374;8.452;2023-12-07T07:29:12;2.00;99.99
13496;DHT22;6820;49.374;8.452;2023-12-07T07:33:14;2.02;99.99
13496;DHT22;6820;49.374;8.452;2023-12-07T07:37:17;2.01;99.99
13496;DHT22;6820;49.374;8.452;2023-12-07T07:41:20;2.01;99.99
13496;DHT22;6820;49.374;8.452;2023-12-07T07:45:22;2.01;99.99
13496;DHT22;6820;49.374;8.452;2023-12-07T07:49:23;2.05;99.99
13496;DHT22;6820;49.374;8.452;2023-12-07T07:53:25;2.08;99.99
13496;DHT22;6820;49.374;8.452;2023-12-07T07:57:30;2.12;99.99
13496;DHT22;6820;49.374;8.452;2023-12-07T08:01:32;2.12;99.99
13496;DHT22;6820;49.374;8.452;2023-12-07T08:05:33;2.11;99.99
13496;DHT22;6820;49.374;8.452;2023-12-07T08:09:35;2.09;99.99
13496;DHT22;6820;49.374;8.452;2023-12-07T08:13:37;2.09;99.99
13496;DHT22;6820;49.374;8.452;2023-12-07T08:17:40;2.11;99.99
13496;DHT22;6820;49.374;8.452;2023-12-07T08:21:43;2.15;99.99
13496;DHT22;6820;49.374;8.452;2023-12-07T08:25:44;2.18;99.99
13496;DHT22;6820;49.374;8.452;2023-12-07T08:29:46;2.19;99.99
13496;DHT22;6820;49.374;8.452;2023-12-07T08:33:48;2.25;99.99
13496;DHT22;6820;49.374;8.452;2023-12-07T08:37:49;2.30;99.99
13496;DHT22;6820;49.374;8.452;2023-12-07T08:41:51;2.37;99.99
13496;DHT22;6820;49.374;8.452;2023-12-07T08:45:53;2.45;99.99
13496;DHT22;6820;49.374;8.452;2023-12-07T08:50:02;2.55;99.99
13496;DHT22;6820;49.374;8.452;2023-12-07T08:54:04;2.62;99.99
13496;DHT22;6820;49.374;8.452;2023-12-07T08:58:06;2.66;99.99
13496;DHT22;6820;49.374;8.452;2023-12-07T09:02:08;2.71;99.99
13496;DHT22;6820;49.374;8.452;2023-12-07T09:06:10;2.76;99.99
13496;DHT22;6820;49.374;8.452;2023-12-07T09:10:12;2.77;99.99
13496;DHT22;6820;49.374;8.452;2023-12-07T09:14:14;2.79;99.99
13496;DHT22;6820;49.374;8.452;2023-12-07T09:18:16;2.83;99.99
13496;DHT22;6820;49.374;8.452;2023-12-07T09:22:18;2.86;99.99
13496;DHT22;6820;49.374;8.452;2023-12-07T09:26:29;2.95;99.99
13496;DHT22;6820;49.374;8.452;2023-12-07T09:30:30;3.02;99.99
13496;DHT22;6820;49.374;8.452;2023-12-07T09:34:32;3.10;99.99
13496;DHT22;6820;49.374;8.452;2023-12-07T09:38:36;3.13;99.99
13496;DHT22;6820;49.374;8.452;2023-12-07T09:42:38;3.20;99.99
13496;DHT22;6820;49.374;8.452;2023-12-07T09:46:41;3.33;99.99
13496;DHT22;6820;49.374;8.452;2023-12-07T09:50:42;3.39;99.99
13496;DHT22;6820;49.374;8.452;2023-12-07T09:54:44;3.49;99.99
13496;DHT22;6820;49.374;8.452;2023-12-07T09:58:46;3.50;99.99
13496;DHT22;6820;49.374;8.452;2023-12-07T10:02:48;3.57;99.99
13496;DHT22;6820;49.374;8.452;2023-12-07T10:06:52;3.60;99.99
13496;DHT22;6820;49.374;8.452;2023-12-07T10:11:08;3.63;99.99
13496;DHT22;6820;49.374;8.452;2023-12-07T10:15:12;3.64;99.99
13496;DHT22;6820;49.374;8.452;2023-12-07T10:19:15;3.64;99.99
13496;DHT22;6820;49.374;8.452;2023-12-07T10:23:33;3.68;99.99
13496;DHT22;6820;49.374;8.452;2023-12-07T10:27:35;3.71;99.99
13496;DHT22;6820;49.374;8.452;2023-12-07T10:31:37;3.77;99.99
13496;DHT22;6820;49.374;8.452;2023-12-07T10:35:39;3.78;99.99
13496;DHT22;6820;49.374;8.452;2023-12-07T10:39:41;3.81;99.99
13496;DHT22;6820;49.374;8.452;2023-12-07T10:43:43;3.86;99.99
13496;DHT22;6820;49.374;8.452;2023-12-07T10:47:47;3.95;99.99
13496;DHT22;6820;49.374;8.452;2023-12-07T10:51:51;4.02;99.99
13496;DHT22;6820;49.374;8.452;2023-12-07T10:56:03;4.04;99.99
13496;DHT22;6820;49.374;8.452;2023-12-07T11:00:07;4.07;99.99
13496;DHT22;6820;49.374;8.452;2023-12-07T11:04:11;4.14;99.99
13496;DHT22;6820;49.374;8.452;2023-12-07T11:12:25;4.31;99.99
13496;DHT22;6820;49.374;8.452;2023-12-07T11:16:37;4.38;99.99
13496;DHT22;6820;49.374;8.452;2023-12-07T11:20:43;4.44;99.99
13496;DHT22;6820;49.374;8.452;2023-12-07T11:24:57;4.42;99.99
13496;DHT22;6820;49.374;8.452;2023-12-07T11:29:02;4.38;99.99
13496;DHT22;6820;49.374;8.452;2023-12-07T11:33:05;4.39;99.99
13496;DHT22;6820;49.374;8.452;2023-12-07T11:37:08;4.46;99.99
13496;DHT22;6820;49.374;8.452;2023-12-07T11:41:11;4.59;99.99
13496;DHT22;6820;49.374;8.452;2023-12-07T11:45:13;4.62;99.99
13496;DHT22;6820;49.374;8.452;2023-12-07T11:49:14;4.61;99.99
13496;DHT22;6820;49.374;8.452;2023-12-07T11:53:29;4.64;99.99
13496;DHT22;6820;49.374;8.452;2023-12-07T11:57:32;4.61;99.99
13496;DHT22;6820;49.374;8.452;2023-12-07T12:01:35;4.64;99.99
13496;DHT22;6820;49.374;8.452;2023-12-07T12:05:36;4.68;99.99
13496;DHT22;6820;49.374;8.452;2023-12-07T12:09:40;4.74;99.99
13496;DHT22;6820;49.374;8.452;2023-12-07T12:13:42;4.79;99.99
13496;DHT22;6820;49.374;8.452;2023-12-07T12:17:47;4.79;99.99
13496;DHT22;6820;49.374;8.452;2023-12-07T12:21:48;4.87;99.99
13496;DHT22;6820;49.374;8.452;2023-12-07T12:25:50;4.88;99.99
13496;DHT22;6820;49.374;8.452;2023-12-07T12:29:52;4.91;99.99
13496;DHT22;6820;49.374;8.452;2023-12-07T12:33:54;4.90;99.99
13496;DHT22;6820;49.374;8.452;2023-12-07T12:37:58;4.94;99.99
13496;DHT22;6820;49.374;8.452;2023-12-07T12:42:00;5.02;99.99
13496;DHT22;6820;49.374;8.452;2023-12-07T12:46:03;5.09;99.99
13496;DHT22;6820;49.374;8.452;2023-12-07T12:50:07;5.17;99.99
13496;DHT22;6820;49.374;8.452;2023-12-07T12:54:10;5.19;99.99
13496;DHT22;6820;49.374;8.452;2023-12-07T12:58:24;5.20;99.99
13496;DHT22;6820;49.374;8.452;2023-12-07T13:02:25;5.19;99.99
13496;DHT22;6820;49.374;8.452;2023-12-07T13:06:27;5.19;99.99
13496;DHT22;6820;49.374;8.452;2023-12-07T13:10:30;5.14;99.99
13496;DHT22;6820;49.374;8.452;2023-12-07T13:14:33;5.09;99.99
13496;DHT22;6820;49.374;8.452;2023-12-07T13:18:41;5.09;99.99
13496;DHT22;6820;49.374;8.452;2023-12-07T13:22:43;5.19;99.99
13496;DHT22;6820;49.374;8.452;2023-12-07T13:26:45;5.29;99.99
13496;DHT22;6820;49.374;8.452;2023-12-07T13:30:46;5.32;99.99
13496;DHT22;6820;49.374;8.452;2023-12-07T13:34:48;5.20;99.99
13496;DHT22;6820;49.374;8.452;2023-12-07T13:38:50;5.23;99.99
13496;DHT22;6820;49.374;8.452;2023-12-07T13:42:52;5.17;99.99
13496;DHT22;6820;49.374;8.452;2023-12-07T13:46:54;5.01;99.99
13496;DHT22;6820;49.374;8.452;2023-12-07T13:50:55;4.84;99.99
13496;DHT22;6820;49.374;8.452;2023-12-07T13:54:57;4.71;99.99
13496;DHT22;6820;49.374;8.452;2023-12-07T13:58:59;4.62;99.99
13496;DHT22;6820;49.374;8.452;2023-12-07T14:03:01;4.54;99.99
13496;DHT22;6820;49.374;8.452;2023-12-07T14:07:15;4.49;99.99
13496;DHT22;6820;49.374;8.452;2023-12-07T14:11:19;4.39;99.99
13496;DHT22;6820;49.374;8.452;2023-12-07T14:15:20;4.28;99.99
13496;DHT22;6820;49.374;8.452;2023-12-07T14:19:40;4.25;99.99
13496;DHT22;6820;49.374;8.452;2023-12-07T14:23:42;4.21;99.99
13496;DHT22;6820;49.374;8.452;2023-12-07T14:27:54;4.18;99.99
13496;DHT22;6820;49.374;8.452;2023-12-07T14:31:56;4.16;99.99
13496;DHT22;6820;49.374;8.452;2023-12-07T14:35:58;4.08;99.99
13496;DHT22;6820;49.374;8.452;2023-12-07T14:39:59;3.98;99.99
13496;DHT22;6820;49.374;8.452;2023-12-07T14:44:01;3.96;99.99
13496;DHT22;6820;49.374;8.452;2023-12-07T14:48:05;3.93;99.99
13496;DHT22;6820;49.374;8.452;2023-12-07T14:52:07;3.92;99.99
13496;DHT22;6820;49.374;8.452;2023-12-07T14:56:09;3.89;99.99
13496;DHT22;6820;49.374;8.452;2023-12-07T15:00:11;3.82;99.99
13496;DHT22;6820;49.374;8.452;2023-12-07T15:04:13;3.81;99.99
13496;DHT22;6820;49.374;8.452;2023-12-07T15:08:31;3.78;99.99
13496;DHT22;6820;49.374;8.452;2023-12-07T15:12:33;3.74;99.99
13496;DHT22;6820;49.374;8.452;2023-12-07T15:16:35;3.71;99.99
13496;DHT22;6820;49.374;8.452;2023-12-07T15:20:36;3.63;99.99
13496;DHT22;6820;49.374;8.452;2023-12-07T15:24:38;3.57;99.99
13496;DHT22;6820;49.374;8.452;2023-12-07T15:28:42;3.49;99.99
13496;DHT22;6820;49.374;8.452;2023-12-07T15:32:43;3.44;99.99
13496;DHT22;6820;49.374;8.452;2023-12-07T15:36:45;3.39;99.99
13496;DHT22;6820;49.374;8.452;2023-12-07T15:40:47;3.33;99.99
13496;DHT22;6820;49.374;8.452;2023-12-07T15:44:49;3.28;99.99
13496;DHT22;6820;49.374;8.452;2023-12-07T15:48:50;3.22;99.99
13496;DHT22;6820;49.374;8.452;2023-12-07T15:52:52;3.20;99.99
13496;DHT22;6820;49.374;8.452;2023-12-07T15:56:54;3.19;99.99
13496;DHT22;6820;49.374;8.452;2023-12-07T16:00:56;3.15;99.99
13496;DHT22;6820;49.374;8.452;2023-12-07T16:04:57;3.13;99.99
13496;DHT22;6820;49.374;8.452;2023-12-07T16:08:59;3.13;99.99
13496;DHT22;6820;49.374;8.452;2023-12-07T16:13:01;3.10;99.99
13496;DHT22;6820;49.374;8.452;2023-12-07T16:17:02;3.13;99.99
13496;DHT22;6820;49.374;8.452;2023-12-07T16:21:05;3.02;99.99
13496;DHT22;6820;49.374;8.452;2023-12-07T16:25:09;2.99;99.99
13496;DHT22;6820;49.374;8.452;2023-12-07T16:29:11;2.99;99.99
13496;DHT22;6820;49.374;8.452;2023-12-07T16:33:20;2.97;99.99
13496;DHT22;6820;49.374;8.452;2023-12-07T16:37:23;2.95;99.99
13496;DHT22;6820;49.374;8.452;2023-12-07T16:41:27;2.98;99.99
13496;DHT22;6820;49.374;8.452;2023-12-07T16:45:36;2.90;99.99
13496;DHT22;6820;49.374;8.452;2023-12-07T16:49:37;2.84;99.99
13496;DHT22;6820;49.374;8.452;2023-12-07T16:53:40;2.81;99.99
13496;DHT22;6820;49.374;8.452;2023-12-07T16:57:42;2.79;99.99
13496;DHT22;6820;49.374;8.452;2023-12-07T17:01:43;2.77;99.99
13496;DHT22;6820;49.374;8.452;2023-12-07T17:05:45;2.69;99.99
13496;DHT22;6820;49.374;8.452;2023-12-07T17:09:47;2.66;99.99
13496;DHT22;6820;49.374;8.452;2023-12-07T17:13:49;2.63;99.99
13496;DHT22;6820;49.374;8.452;2023-12-07T17:17:51;2.62;99.99
13496;DHT22;6820;49.374;8.452;2023-12-07T17:21:53;2.56;99.99
13496;DHT22;6820;49.374;8.452;2023-12-07T17:25:56;2.45;99.99
13496;DHT22;6820;49.374;8.452;2023-12-07T17:29:58;2.40;99.99
13496;DHT22;6820;49.374;8.452;2023-12-07T17:34:00;2.36;99.99
13496;DHT22;6820;49.374;8.452;2023-12-07T17:38:02;2.30;99.99
13496;DHT22;6820;49.374;8.452;2023-12-07T17:42:04;2.26;99.99
13496;DHT22;6820;49.374;8.452;2023-12-07T17:46:06;2.18;99.99
13496;DHT22;6820;49.374;8.452;2023-12-07T17:50:07;2.18;99.99
13496;DHT22;6820;49.374;8.452;2023-12-07T17:54:09;2.22;99.99
13496;DHT22;6820;49.374;8.452;2023-12-07T17:58:12;2.15;99.99
13496;DHT22;6820;49.374;8.452;2023-12-07T18:02:14;2.12;99.99
13496;DHT22;6820;49.374;8.452;2023-12-07T18:06:16;2.11;99.99
13496;DHT22;6820;49.374;8.452;2023-12-07T18:10:21;2.11;99.99
13496;DHT22;6820;49.374;8.452;2023-12-07T18:14:25;2.08;99.99
13496;DHT22;6820;49.374;8.452;2023-12-07T18:18:27;2.04;99.99
13496;DHT22;6820;49.374;8.452;2023-12-07T18:22:30;2.00;99.99
13496;DHT22;6820;49.374;8.452;2023-12-07T18:26:32;1.95;99.99
13496;DHT22;6820;49.374;8.452;2023-12-07T18:30:36;1.85;99.99
13496;DHT22;6820;49.374;8.452;2023-12-07T18:34:40;1.77;99.99
13496;DHT22;6820;49.374;8.452;2023-12-07T18:38:42;1.70;99.99
13496;DHT22;6820;49.374;8.452;2023-12-07T18:42:43;1.68;99.99
13496;DHT22;6820;49.374;8.452;2023-12-07T18:46:45;1.67;99.99
13496;DHT22;6820;49.374;8.452;2023-12-07T18:50:47;1.65;99.99
13496;DHT22;6820;49.374;8.452;2023-12-07T18:54:49;1.57;99.99
13496;DHT22;6820;49.374;8.452;2023-12-07T18:58:50;1.53;99.99
13496;DHT22;6820;49.374;8.452;2023-12-07T19:02:52;1.57;99.99
13496;DHT22;6820;49.374;8.452;2023-12-07T19:06:57;1.56;99.99
13496;DHT22;6820;49.374;8.452;2023-12-07T19:11:01;1.57;99.99
13496;DHT22;6820;49.374;8.452;2023-12-07T19:15:03;1.56;99.99
13496;DHT22;6820;49.374;8.452;2023-12-07T19:19:05;1.61;99.99
13496;DHT22;6820;49.374;8.452;2023-12-07T19:23:07;1.63;99.99
13496;DHT22;6820;49.374;8.452;2023-12-07T19:27:10;1.68;99.99
13496;DHT22;6820;49.374;8.452;2023-12-07T19:31:12;1.70;99.99
13496;DHT22;6820;49.374;8.452;2023-12-07T19:35:13;1.67;99.99
13496;DHT22;6820;49.374;8.452;2023-12-07T19:39:15;1.67;99.99
13496;DHT22;6820;49.374;8.452;2023-12-07T19:43:20;1.74;99.99
13496;DHT22;6820;49.374;8.452;2023-12-07T19:47:22;1.88;99.99
13496;DHT22;6820;49.374;8.452;2023-12-07T19:51:24;2.02;99.99
13496;DHT22;6820;49.374;8.452;2023-12-07T19:55:26;2.15;99.99
13496;DHT22;6820;49.374;8.452;2023-12-07T19:59:31;2.27;99.99
13496;DHT22;6820;49.374;8.452;2023-12-07T20:03:33;2.38;99.99
13496;DHT22;6820;49.374;8.452;2023-12-07T20:07:36;2.50;99.99
13496;DHT22;6820;49.374;8.452;2023-12-07T20:11:43;2.61;99.99
13496;DHT22;6820;49.374;8.452;2023-12-07T20:15:45;2.65;99.99
13496;DHT22;6820;49.374;8.452;2023-12-07T20:19:48;2.71;99.99
13496;DHT22;6820;49.374;8.452;2023-12-07T20:23:50;2.79;99.99
13496;DHT22;6820;49.374;8.452;2023-12-07T20:27:52;2.81;99.99
13496;DHT22;6820;49.374;8.452;2023-12-07T20:31:54;2.84;99.99
13496;DHT22;6820;49.374;8.452;2023-12-07T20:35:55;2.86;99.99
13496;DHT22;6820;49.374;8.452;2023-12-07T20:39:57;2.87;99.99
13496;DHT22;6820;49.374;8.452;2023-12-07T20:43:59;2.89;99.99
13496;DHT22;6820;49.374;8.452;2023-12-07T20:48:01;2.90;99.99
13496;DHT22;6820;49.374;8.452;2023-12-07T20:52:04;2.92;99.99
13496;DHT22;6820;49.374;8.452;2023-12-07T20:56:07;2.92;99.99
13496;DHT22;6820;49.374;8.452;2023-12-07T21:00:09;2.90;99.99
13496;DHT22;6820;49.374;8.452;2023-12-07T21:04:11;2.90;99.99
13496;DHT22;6820;49.374;8.452;2023-12-07T21:08:13;2.90;99.99
13496;DHT22;6820;49.374;8.452;2023-12-07T21:12:15;2.90;99.99
13496;DHT22;6820;49.374;8.452;2023-12-07T21:16:16;2.89;99.99
13496;DHT22;6820;49.374;8.452;2023-12-07T21:20:18;2.87;99.99
13496;DHT22;6820;49.374;8.452;2023-12-07T21:24:20;2.87;99.99
13496;DHT22;6820;49.374;8.452;2023-12-07T21:28:22;2.87;99.99
13496;DHT22;6820;49.374;8.452;2023-12-07T21:32:24;2.87;99.99
13496;DHT22;6820;49.374;8.452;2023-12-07T21:36:26;2.90;99.99
13496;DHT22;6820;49.374;8.452;2023-12-07T21:40:28;2.92;99.99
13496;DHT22;6820;49.374;8.452;2023-12-07T21:44:29;2.94;99.99
13496;DHT22;6820;49.374;8.452;2023-12-07T21:48:31;2.94;99.99
13496;DHT22;6820;49.374;8.452;2023-12-07T21:52:33;2.94;99.99
13496;DHT22;6820;49.374;8.452;2023-12-07T21:56:35;2.97;99.99
13496;DHT22;6820;49.374;8.452;2023-12-07T22:00:36;2.97;99.99
13496;DHT22;6820;49.374;8.452;2023-12-07T22:04:38;2.98;99.99
13496;DHT22;6820;49.374;8.452;2023-12-07T22:08:40;2.99;99.99
13496;DHT22;6820;49.374;8.452;2023-12-07T22:12:41;2.99;99.99
13496;DHT22;6820;49.374;8.452;2023-12-07T22:16:43;2.99;99.99
13496;DHT22;6820;49.374;8.452;2023-12-07T22:20:44;3.01;99.99
13496;DHT22;6820;49.374;8.452;2023-12-07T22:24:46;3.02;99.99
13496;DHT22;6820;49.374;8.452;2023-12-07T22:28:48;3.04;99.99
13496;DHT22;6820;49.374;8.452;2023-12-07T22:32:50;3.02;99.99
13496;DHT22;6820;49.374;8.452;2023-12-07T22:36:52;3.04;99.99
13496;DHT22;6820;49.374;8.452;2023-12-07T22:40:53;3.07;99.99
13496;DHT22;6820;49.374;8.452;2023-12-07T22:44:55;3.08;99.99
13496;DHT22;6820;49.374;8.452;2023-12-07T22:48:57;3.10;99.99
13496;DHT22;6820;49.374;8.452;2023-12-07T22:52:59;3.12;99.99
13496;DHT22;6820;49.374;8.452;2023-12-07T22:57:00;3.13;99.99
13496;DHT22;6820;49.374;8.452;2023-12-07T23:01:05;3.13;99.99
13496;DHT22;6820;49.374;8.452;2023-12-07T23:05:06;3.13;99.99
13496;DHT22;6820;49.374;8.452;2023-12-07T23:09:08;3.13;99.99
13496;DHT22;6820;49.374;8.452;2023-12-07T23:13:11;3.13;99.99
13496;DHT22;6820;49.374;8.452;2023-12-07T23:17:13;3.16;99.99
13496;DHT22;6820;49.374;8.452;2023-12-07T23:21:14;3.16;99.99
13496;DHT22;6820;49.374;8.452;2023-12-07T23:25:17;3.15;99.99
13496;DHT22;6820;49.374;8.452;2023-12-07T23:29:20;3.16;99.99
13496;DHT22;6820;49.374;8.452;2023-12-07T23:33:21;3.19;99.99
13496;DHT22;6820;49.374;8.452;2023-12-07T23:37:23;3.22;99.99
13496;DHT22;6820;49.374;8.452;2023-12-07T23:41:25;3.23;99.99
13496;DHT22;6820;49.374;8.452;2023-12-07T23:45:27;3.23;99.99
13496;DHT22;6820;49.374;8.452;2023-12-07T23:49:28;3.23;99.99
13496;DHT22;6820;49.374;8.452;2023-12-07T23:53:30;3.22;99.99
13496;DHT22;6820;49.374;8.452;2023-12-07T23:57:33;3.25;99.99
